Latest Weather Observations for Lake Macquarie - Cooranbong

IDN60901

Issued at 9:01 pm EDT Sunday 26 February 2017 (issued every 10 minutes, with the page automatically refreshed every 10 minutes)

About weather observations | Map of Sydney area stations | Latest observations for Sydney area | Other Formats
Station Details ID: 061412 Name: LAKE MACQUARIE AWS Lat: -33.09 Lon: 151.46 Height: 6.0 m
Data from the previous 72 hours. | See also: Recent months at Lake Macquarie - Cooranbong
Date/Time
EDT
Temp
°C
App
Temp
°C
Dew
Point
°C
Rel
Hum
%
Delta-T
°C
Wind Press
QNH
hPa
Press
MSL
hPa
Rain since
9am
mm
Dir  Spd
km/h
Gust
km/h
Spd
kts
Gust
kts
26/08:30pm 19.3 21.0 17.1 87 1.3 SW 4 9 2 5 1022.1 1022.1 0.2
26/08:00pm 19.6 20.8 16.8 84 1.7 SW 6 11 3 6 1021.8 1021.8 0.0
26/07:30pm 20.9 21.4 16.5 76 2.7 SSE 9 22 5 12 1021.6 1021.6 0.0
26/07:00pm 21.8 22.2 15.4 67 3.8 S 7 15 4 8 1021.2 1021.2 0.0
26/06:30pm 22.0 23.0 15.4 66 3.9 S 4 9 2 5 1021.1 1021.1 0.0
26/06:00pm 22.3 22.9 15.4 65 4.1 SSW 6 11 3 6 1021.0 1021.0 0.0
26/05:30pm 23.1 23.1 15.2 61 4.7 S 9 19 5 10 1021.1 1021.1 0.0
26/05:00pm 22.5 21.7 14.1 59 4.9 SSE 11 24 6 13 1020.9 1020.9 0.0
26/04:30pm 24.3 22.9 13.5 51 6.3 SSE 13 24 7 13 1020.7 1020.7 0.0
26/04:00pm 24.4 23.4 13.3 50 6.4 S 11 28 6 15 1020.7 1020.7 0.0
26/03:30pm 24.6 24.0 13.5 50 6.5 SSE 9 19 5 10 1020.8 1020.8 0.0
26/03:00pm 24.6 22.7 12.9 48 6.7 SSE 15 26 8 14 1020.9 1020.9 0.0
26/02:30pm 25.1 23.8 13.6 49 6.7 SSE 13 28 7 15 1021.3 1021.3 0.0
26/02:00pm 25.2 23.9 13.7 49 6.7 S 13 24 7 13 1021.7 1021.7 0.0
26/01:30pm 25.0 23.3 13.5 48 6.7 SSE 15 32 8 17 1021.7 1021.7 0.0
26/01:00pm 24.8 22.9 13.0 47 6.8 SSE 15 30 8 16 1021.7 1021.7 0.0
26/12:30pm 24.1 24.1 15.3 58 5.3 SSE 9 15 5 8 1022.0 1022.0 0.0
26/12:00pm 22.2 23.3 16.5 70 3.5 SE 6 13 3 7 1022.4 1022.4 0.0
26/11:30am 21.8 22.6 16.3 71 3.3 S 7 13 4 7 1022.4 1022.4 0.0
26/11:00am 21.7 21.7 16.2 71 3.3 SSE 11 20 6 11 1022.5 1022.5 0.0
26/10:30am 21.6 22.9 17.0 75 2.8 SE 6 11 3 6 1022.1 1022.1 0.0
26/10:00am 21.9 23.4 17.7 77 2.6 SSW 6 11 3 6 1021.8 1021.8 0.0
26/09:30am 20.8 22.1 17.0 79 2.3 SSW 6 9 3 5 1021.8 1021.8 0.0
26/09:00am 20.9 22.9 17.9 83 1.9 SW 4 9 2 5 1021.5 1021.5 12.8
26/08:30am 20.1 22.8 17.7 86 1.5 CALM 0 4 0 2 1021.1 1021.1 12.8
26/08:00am 19.4 21.3 17.7 90 1.0 SW 4 6 2 3 1021.0 1021.0 12.8
26/07:30am 19.0 21.7 17.7 92 0.8 CALM 0 0 0 0 1020.6 1020.6 12.8
26/07:00am 18.8 20.6 17.5 92 0.8 S 4 7 2 4 1020.3 1020.3 12.8
26/06:30am 18.9 20.1 17.4 91 0.9 SW 7 11 4 6 1019.9 1019.9 12.8
26/06:00am 19.0 20.9 17.7 92 0.8 SSW 4 7 2 4 1019.5 1019.5 12.6
26/05:30am 18.8 20.3 17.5 92 0.8 SW 6 11 3 6 1019.2 1019.2 12.4
26/05:00am 18.9 21.2 17.6 92 0.8 WNW 2 2 1 1 1019.1 1019.1 12.4
26/04:30am 18.9 20.0 17.2 90 1.0 S 7 13 4 7 1018.7 1018.7 11.2
26/04:00am 18.7 20.2 17.5 93 0.7 SSE 6 13 3 7 1018.7 1018.7 8.6
26/03:30am 18.9 21.6 17.7 93 0.7 CALM 0 0 0 0 1018.7 1018.7 8.6
26/03:00am 18.8 21.3 17.3 91 0.9 CALM 0 0 0 0 1018.9 1018.9 8.4
26/02:30am 19.0 21.6 17.5 91 0.9 CALM 0 0 0 0 1019.2 1019.2 8.4
26/02:00am 19.2 21.8 17.5 90 1.0 CALM 0 0 0 0 1019.4 1019.4 8.4
26/01:30am 19.6 22.1 17.2 86 1.5 CALM 0 0 0 0 1019.8 1019.8 8.2
26/01:00am 19.6 22.1 17.2 86 1.5 CALM 0 2 0 1 1020.0 1020.0 8.2
26/12:30am 19.6 21.8 17.4 87 1.3 SSW 2 4 1 2 1020.0 1020.0 8.2
26/12:00am 19.4 21.5 17.2 87 1.3 SW 2 4 1 2 1020.0 1020.0 8.2
 
Date/Time
EDT
Temp
°C
App
Temp
°C
Dew
Point
°C
Rel
Hum
%
Delta-T
°C
Wind Press
QNH
hPa
Press
MSL
hPa
Rain since
9am
mm
Dir  Spd
km/h
Gust
km/h
Spd
kts
Gust
kts
25/11:30pm 19.3 21.8 17.3 88 1.2 CALM 0 4 0 2 1019.8 1019.8 8.2
25/11:00pm 19.5 21.8 17.6 89 1.2 SSW 2 6 1 3 1019.9 1019.9 8.2
25/10:30pm 19.5 21.7 17.5 88 1.2 SSW 2 4 1 2 1019.9 1019.9 8.2
25/10:00pm 19.6 22.3 17.7 89 1.2 CALM 0 2 0 1 1020.2 1020.2 8.2
25/09:30pm 19.4 21.3 17.7 90 1.0 SSW 4 6 2 3 1019.9 1019.9 8.2
25/09:00pm 19.5 21.6 18.2 92 0.8 SW 4 6 2 3 1019.6 1019.6 8.2
25/08:30pm 19.5 22.0 18.2 92 0.8 SSW 2 6 1 3 1019.7 1019.7 8.2
25/08:00pm 19.6 21.8 18.4 93 0.7 SW 4 6 2 3 1019.7 1019.7 8.2
25/07:30pm 19.6 21.8 18.4 93 0.7 SW 4 9 2 5 1019.7 1019.7 8.2
25/07:00pm 19.4 20.9 18.1 92 0.8 S 7 20 4 11 1019.2 1019.2 8.2
25/06:30pm 19.6 21.2 18.3 92 0.8 S 7 15 4 8 1019.0 1019.0 8.0
25/06:00pm 19.9 21.6 18.6 92 0.8 S 7 17 4 9 1019.0 1019.0 7.6
25/05:30pm 19.9 21.8 18.6 92 0.8 S 6 13 3 7 1019.1 1019.1 7.4
25/05:00pm 20.0 21.9 18.5 91 0.9 SSW 6 11 3 6 1019.0 1019.0 6.8
25/04:30pm 20.2 22.0 18.7 91 0.9 SSW 7 17 4 9 1019.0 1019.0 6.4
25/04:00pm 20.3 22.4 19.0 92 0.8 S 6 13 3 7 1019.1 1019.1 6.2
25/03:30pm 20.2 21.9 18.5 90 1.1 SSW 7 17 4 9 1019.3 1019.3 5.2
25/03:00pm 20.7 23.2 19.0 90 1.1 SSW 4 9 2 5 1019.4 1019.4 4.6
25/02:30pm 21.3 22.6 18.5 84 1.8 SSW 9 20 5 11 1019.5 1019.5 3.4
25/02:00pm 22.1 23.0 18.5 80 2.3 SSW 11 24 6 13 1019.5 1019.5 3.2
25/01:30pm 21.6 23.6 19.2 86 1.5 SSW 7 13 4 7 1019.8 1019.8 3.2
25/01:00pm 20.9 23.0 19.0 89 1.2 SW 6 11 3 6 1019.9 1019.9 3.2
25/12:30pm 20.9 23.1 19.2 90 1.1 WSW 6 11 3 6 1020.1 1020.1 3.2
25/12:00pm 21.4 24.1 19.5 89 1.2 SW 4 6 2 3 1020.2 1020.2 2.8
25/11:30am 21.5 23.4 18.5 83 1.9 S 6 13 3 7 1020.3 1020.3 1.8
25/11:00am 23.8 25.3 18.0 70 3.6 SSW 7 15 4 8 1020.1 1020.1 0.0
25/10:30am 23.9 25.7 18.8 73 3.2 WSW 7 15 4 8 1020.0 1020.0 0.0
25/10:00am 23.4 25.0 18.3 73 3.2 SW 7 13 4 7 1019.8 1019.8 0.0
25/09:30am 23.7 25.7 18.8 74 3.1 SSW 6 11 3 6 1019.8 1019.8 0.0
25/09:00am 23.3 25.2 18.6 75 3.0 SW 6 13 3 7 1019.7 1019.7 0.0
25/08:30am 21.9 23.9 18.7 82 2.0 WSW 6 9 3 5 1019.6 1019.6 0.0
25/08:00am 21.1 23.9 18.9 87 1.4 SSW 2 6 1 3 1019.6 1019.6 0.0
25/07:30am 20.4 23.6 18.9 91 0.9 CALM 0 0 0 0 1019.3 1019.3 0.0
25/07:00am 19.7 22.5 18.0 90 1.0 CALM 0 0 0 0 1019.0 1019.0 0.0
25/06:30am 19.8 22.6 17.9 89 1.2 CALM 0 0 0 0 1018.7 1018.7 0.0
25/06:00am 19.9 22.7 17.9 88 1.2 CALM 0 0 0 0 1018.4 1018.4 0.0
25/05:30am 19.9 22.7 17.9 88 1.2 CALM 0 0 0 0 1018.5 1018.5 0.0
25/05:00am 20.0 22.8 18.0 88 1.2 CALM 0 0 0 0 1018.7 1018.7 0.0
25/04:30am 20.1 23.0 18.1 88 1.2 CALM 0 0 0 0 1018.5 1018.5 0.0
25/04:00am 19.9 22.6 17.7 87 1.3 CALM 0 0 0 0 1018.4 1018.4 0.0
25/03:30am 20.1 23.0 18.1 88 1.2 CALM 0 0 0 0 1018.5 1018.5 0.0
25/03:00am 20.0 22.8 18.0 88 1.2 CALM 0 0 0 0 1018.7 1018.7 0.0
25/02:30am 19.9 22.7 17.9 88 1.2 CALM 0 0 0 0 1018.7 1018.7 0.0
25/02:00am 19.5 21.4 17.6 89 1.2 S 4 6 2 3 1019.0 1019.0 0.0
25/01:30am 18.9 20.1 16.9 88 1.2 N 6 9 3 5 1018.7 1018.7 0.0
25/01:00am 19.7 22.4 17.7 88 1.2 CALM 0 0 0 0 1019.4 1019.4 0.0
25/12:30am 19.9 22.4 17.3 85 1.6 CALM 0 0 0 0 1019.7 1019.7 0.0
25/12:00am 20.2 22.8 17.6 85 1.6 CALM 0 0 0 0 1019.6 1019.6 0.0
 
Date/Time
EDT
Temp
°C
App
Temp
°C
Dew
Point
°C
Rel
Hum
%
Delta-T
°C
Wind Press
QNH
hPa
Press
MSL
hPa
Rain since
9am
mm
Dir  Spd
km/h
Gust
km/h
Spd
kts
Gust
kts
24/11:30pm 20.8 23.5 17.8 83 1.9 CALM 0 0 0 0 1019.9 1019.9 0.0
24/11:00pm 20.4 23.0 17.6 84 1.7 CALM 0 0 0 0 1020.2 1020.2 0.0
24/10:30pm 20.1 22.7 17.5 85 1.6 CALM 0 0 0 0 1020.0 1020.0 0.0
24/10:00pm 20.0 22.4 17.0 83 1.8 CALM 0 0 0 0 1019.7 1019.7 0.0
24/09:30pm 20.8 23.4 17.4 81 2.1 CALM 0 0 0 0 1019.6 1019.6 0.0
24/09:00pm 21.5 24.0 17.3 77 2.6 CALM 0 0 0 0 1019.2 1019.2 0.0
24/08:30pm 22.2 24.7 17.3 74 3.0 CALM 0 0 0 0 1018.8 1018.8 0.0
24/08:00pm 23.2 25.3 17.2 69 3.7 E 2 6 1 3 1018.5 1018.5 0.0
24/07:30pm 23.7 25.4 17.2 67 4.0 E 4 11 2 6 1018.2 1018.2 0.0
24/07:00pm 24.3 26.4 17.3 65 4.3 NE 2 7 1 4 1018.2 1018.2 0.0
24/06:30pm 24.5 25.8 17.0 63 4.6 E 6 11 3 6 1017.9 1017.9 0.0
24/06:00pm 25.3 26.0 17.0 60 5.1 ENE 9 19 5 10 1017.7 1017.7 0.0
24/05:30pm 25.3 25.9 16.7 59 5.3 ENE 9 17 5 9 1017.9 1017.9 0.0
24/05:00pm 25.4 26.3 16.5 58 5.5 E 7 13 4 7 1018.1 1018.1 0.0
24/04:30pm 25.5 25.7 15.8 55 5.9 E 9 17 5 9 1018.0 1018.0 0.0
24/04:00pm 26.7 26.6 16.0 52 6.6 ENE 11 20 6 11 1018.3 1018.3 0.0
24/03:30pm 27.0 26.9 16.9 54 6.3 ENE 13 19 7 10 1017.9 1017.9 0.0
24/03:00pm 26.9 26.0 16.8 54 6.3 E 17 24 9 13 1018.1 1018.1 0.0
24/02:30pm 26.8 26.6 16.7 54 6.3 ENE 13 24 7 13 1018.5 1018.5 0.0
24/02:00pm 27.1 27.1 17.3 55 6.1 E 13 22 7 12 1018.9 1018.9 0.0
24/01:30pm 26.8 26.7 17.0 55 6.1 E 13 24 7 13 1019.4 1019.4 0.0
24/01:00pm 27.8 27.7 17.9 54 6.3 E 15 24 8 13 1019.8 1019.8 0.0
24/12:30pm 27.2 26.8 17.1 54 6.3 E 15 28 8 15 1020.1 1020.1 0.0
24/12:00pm 26.9 26.6 17.4 56 5.9 ESE 15 24 8 13 1020.3 1020.3 0.0
24/11:30am 26.6 26.1 16.8 55 6.1 ESE 15 20 8 11 1020.3 1020.3 0.0
24/11:00am 26.6 27.7 17.1 56 5.9 E 7 13 4 7 1020.4 1020.4 0.0
24/10:30am 26.1 27.3 16.9 57 5.7 SSE 6 11 3 6 1020.5 1020.5 0.0
24/10:00am 25.6 28.2 18.3 64 4.6 WSW 2 6 1 3 1020.4 1020.4 0.0
24/09:30am 23.9 25.8 17.6 68 3.9 SSE 4 9 2 5 1020.4 1020.4 0.0
24/09:00am 21.7 23.8 18.1 80 2.2 SSW 4 6 2 3 1020.2 1020.2 0.0
24/08:30am 19.8 22.9 18.6 93 0.7 CALM 0 0 0 0 1019.9 1019.9 0.0
24/08:00am 17.6 20.0 17.1 97 0.3 CALM 0 0 0 0 1019.7 1019.7 0.0
24/07:30am 15.8 17.5 15.2 96 0.3 CALM 0 0 0 0 1019.5 1019.5 0.0
24/07:00am 15.4 17.0 14.8 96 0.3 CALM 0 0 0 0 1019.2 1019.2 0.0
24/06:30am 15.3 16.7 14.5 95 0.5 CALM 0 0 0 0 1018.6 1018.6 0.0
24/06:00am 15.3 16.7 14.5 95 0.5 CALM 0 0 0 0 1018.2 1018.2 0.0
24/05:30am 15.0 16.0 14.2 95 0.5 N 2 4 1 2 1018.1 1018.1 0.0
24/05:00am 15.8 17.4 15.0 95 0.5 CALM 0 0 0 0 1017.9 1017.9 0.0
24/04:30am 15.7 17.3 14.9 95 0.5 CALM 0 0 0 0 1017.3 1017.3 0.0
24/04:00am 15.9 17.6 15.1 95 0.5 CALM 0 0 0 0 1017.3 1017.3 0.0
24/03:30am 16.5 18.4 15.7 95 0.5 CALM 0 0 0 0 1017.4 1017.4 0.0
24/03:00am 16.4 18.2 15.4 94 0.6 CALM 0 0 0 0 1017.3 1017.3 0.0
24/02:30am 16.9 18.9 15.9 94 0.6 CALM 0 0 0 0 1017.2 1017.2 0.0
24/02:00am 16.9 18.8 15.8 93 0.6 CALM 0 0 0 0 1017.5 1017.5 0.0
24/01:30am 17.1 19.0 15.8 92 0.8 CALM 0 0 0 0 1017.8 1017.8 0.0
24/01:00am 17.6 19.7 16.3 92 0.8 CALM 0 0 0 0 1017.9 1017.9 0.0
24/12:30am 18.1 20.3 16.6 91 0.9 CALM 0 0 0 0 1018.0 1018.0 0.0
24/12:00am 18.1 20.2 16.3 89 1.1 CALM 0 0 0 0 1018.0 1018.0 0.0
 
Date/Time
EDT
Temp
°C
App
Temp
°C
Dew
Point
°C
Rel
Hum
%
Delta-T
°C
Wind Press
QNH
hPa
Press
MSL
hPa
Rain since
9am
mm
Dir  Spd
km/h
Gust
km/h
Spd
kts
Gust
kts
23/11:30pm 18.5 20.7 16.5 88 1.2 CALM 0 0 0 0 1018.0 1018.0 0.0
23/11:00pm 18.7 20.7 16.1 85 1.5 CALM 0 0 0 0 1018.2 1018.2 0.0
23/10:30pm 19.3 21.5 16.5 84 1.7 CALM 0 0 0 0 1018.2 1018.2 0.0
23/10:00pm 19.7 21.8 16.3 81 2.0 CALM 0 0 0 0 1018.4 1018.4 0.0
23/09:30pm 20.5 22.7 16.5 78 2.4 CALM 0 0 0 0 1018.2 1018.2 0.0

Latest Capital City Observations: Canberra | Sydney | Melbourne | Brisbane | Adelaide | Perth | Hobart | Darwin

Other Formats:

Comma delimited format used in spreadsheet applications
http://www.bom.gov.au/fwo/IDN60901/IDN60901.95767.axf

JavaScript Object Notation format (JSON) in row-major order
http://www.bom.gov.au/fwo/IDN60901/IDN60901.95767.json